Terminal Aerodrome Forecast
Issued by NWS Burlington, VT

Home | Current Version | Previous Version | Text Only | Print | Product List | Glossary On
Versions: 1 2 3 4 5 6 7 8 9 10 11 12 13 14
000
FTUS41 KBTV 281721
TAFBTV
TAF
KBTV 281721Z 2818/2918 29006KT P6SM SCT045
     FM290000 VRB02KT P6SM SKC
     FM291400 20006KT P6SM SCT045=

USA.gov is the U.S. government's official web portal to all federal, state and local government web resources and services.